createdAt,value
2022-12-31T00:02:36.932Z,100.00
2022-12-31T00:05:40.015Z,100.00
2022-12-31T00:08:43.546Z,100.00
2022-12-31T00:11:46.865Z,100.00
2022-12-31T00:14:49.698Z,100.00
2022-12-31T00:17:52.667Z,100.00
2022-12-31T00:20:57.814Z,100.00
2022-12-31T00:24:01.339Z,100.00
2022-12-31T00:27:04.177Z,100.00
2022-12-31T00:30:07.783Z,100.00
2022-12-31T00:33:10.614Z,100.00
2022-12-31T00:36:22.356Z,100.00
2022-12-31T00:39:25.173Z,100.00
2022-12-31T00:42:28.084Z,100.00
2022-12-31T00:45:30.993Z,100.00
2022-12-31T00:48:34.921Z,100.00
2022-12-31T00:51:37.915Z,100.00
2022-12-31T00:54:40.768Z,100.00
2022-12-31T00:57:43.695Z,100.00
2022-12-31T01:00:46.546Z,100.00
2022-12-31T01:03:51.343Z,100.00
2022-12-31T01:06:54.496Z,100.00
2022-12-31T01:09:57.341Z,100.00
2022-12-31T01:13:00.546Z,100.00
2022-12-31T01:16:12.342Z,100.00
2022-12-31T01:19:24.629Z,100.00
2022-12-31T01:22:27.799Z,100.00
2022-12-31T01:25:30.676Z,100.00
2022-12-31T01:28:34.059Z,100.00
2022-12-31T01:31:44.000Z,100.00
2022-12-31T01:34:47.890Z,100.00
2022-12-31T01:37:50.945Z,100.00
2022-12-31T01:40:54.094Z,100.00
2022-12-31T01:44:00.256Z,100.00
2022-12-31T01:47:04.592Z,100.00
2022-12-31T01:50:15.279Z,100.00
2022-12-31T01:53:18.713Z,100.00
2022-12-31T01:56:22.794Z,100.00
2022-12-31T01:59:27.590Z,100.00
2022-12-31T02:02:30.590Z,100.00
2022-12-31T02:05:41.111Z,100.00
2022-12-31T02:08:44.577Z,100.00
2022-12-31T02:11:48.488Z,100.00
2022-12-31T02:14:52.987Z,100.00
2022-12-31T02:18:05.322Z,100.00
2022-12-31T02:21:13.739Z,100.00
2022-12-31T02:24:39.609Z,100.00
2022-12-31T02:28:20.966Z,100.00
2022-12-31T02:31:36.446Z,100.00
2022-12-31T02:34:47.122Z,100.00
2022-12-31T02:37:54.151Z,100.00
2022-12-31T02:40:57.891Z,100.00
2022-12-31T02:44:00.996Z,100.00
2022-12-31T02:47:13.635Z,100.00
2022-12-31T02:50:55.785Z,100.00
2022-12-31T02:54:08.024Z,100.00
2022-12-31T02:57:13.721Z,100.00
2022-12-31T03:00:36.380Z,100.00
2022-12-31T03:03:39.888Z,100.00
2022-12-31T03:06:43.340Z,100.00
2022-12-31T03:09:46.433Z,100.00
2022-12-31T03:12:49.786Z,100.00
2022-12-31T03:15:52.852Z,100.00
2022-12-31T03:19:14.613Z,100.00
2022-12-31T03:22:29.408Z,100.00
2022-12-31T03:25:35.752Z,100.00
2022-12-31T03:28:40.730Z,100.00
2022-12-31T03:31:43.615Z,100.00
2022-12-31T03:34:46.530Z,100.00
2022-12-31T03:37:52.348Z,100.00
2022-12-31T03:40:55.544Z,100.00
2022-12-31T03:43:58.320Z,100.00
2022-12-31T03:47:01.080Z,100.00
2022-12-31T03:50:05.990Z,100.00
2022-12-31T03:53:08.912Z,100.00
2022-12-31T03:56:11.720Z,100.00
2022-12-31T03:59:14.788Z,100.00
2022-12-31T04:02:18.557Z,100.00
2022-12-31T04:05:27.864Z,100.00
2022-12-31T04:08:30.669Z,100.00
2022-12-31T04:11:33.552Z,100.00
2022-12-31T04:14:36.525Z,100.00
2022-12-31T04:17:39.390Z,100.00
2022-12-31T04:20:42.389Z,100.00
2022-12-31T04:23:47.460Z,100.00
2022-12-31T04:26:50.657Z,100.00
2022-12-31T04:29:53.507Z,100.00
2022-12-31T04:32:56.288Z,100.00
2022-12-31T04:36:03.209Z,100.00
2022-12-31T04:39:06.665Z,100.00
2022-12-31T04:42:09.648Z,100.00
2022-12-31T04:45:12.528Z,100.00
2022-12-31T04:48:18.229Z,100.00
2022-12-31T04:51:22.037Z,100.00
2022-12-31T04:54:24.912Z,100.00
2022-12-31T04:57:27.843Z,100.00
2022-12-31T05:00:30.695Z,100.00
2022-12-31T05:03:33.863Z,100.00
2022-12-31T05:06:36.981Z,100.00
2022-12-31T05:09:39.831Z,100.00
2022-12-31T05:12:42.627Z,100.00
2022-12-31T05:15:48.910Z,100.00
2022-12-31T05:18:51.871Z,100.00
2022-12-31T05:22:13.200Z,100.00
2022-12-31T05:25:16.325Z,100.00
2022-12-31T05:28:22.695Z,100.00
2022-12-31T05:31:25.479Z,100.00
2022-12-31T05:34:28.436Z,100.00
2022-12-31T05:37:31.959Z,100.00
2022-12-31T05:40:34.850Z,100.00
2022-12-31T05:43:37.699Z,100.00
2022-12-31T05:46:40.629Z,100.00
2022-12-31T05:49:43.674Z,100.00
2022-12-31T05:52:49.782Z,100.00
2022-12-31T05:55:52.794Z,100.00
2022-12-31T05:58:55.656Z,100.00
2022-12-31T06:01:58.740Z,100.00
2022-12-31T06:05:01.589Z,100.00
2022-12-31T06:08:04.651Z,100.00
2022-12-31T06:11:07.494Z,100.00
2022-12-31T06:14:10.493Z,100.00
2022-12-31T06:17:13.514Z,100.00
2022-12-31T06:20:16.561Z,100.00
2022-12-31T06:23:19.614Z,100.00
2022-12-31T06:26:22.516Z,100.00
2022-12-31T06:29:25.562Z,100.00
2022-12-31T06:32:28.474Z,100.00
2022-12-31T06:35:31.299Z,100.00
2022-12-31T06:38:38.781Z,100.00
2022-12-31T06:41:41.710Z,100.00
2022-12-31T06:44:44.574Z,100.00
2022-12-31T06:47:49.648Z,100.00
2022-12-31T06:50:52.602Z,100.00
2022-12-31T06:53:55.585Z,100.00
2022-12-31T06:57:01.868Z,100.00
2022-12-31T07:00:05.663Z,100.00
2022-12-31T07:03:14.517Z,100.00
2022-12-31T07:06:23.471Z,100.00
2022-12-31T07:10:04.053Z,100.00
2022-12-31T07:13:31.906Z,100.00
2022-12-31T07:16:57.417Z,100.00
2022-12-31T07:20:10.628Z,100.00
2022-12-31T07:23:13.780Z,100.00
2022-12-31T07:26:23.160Z,100.00
2022-12-31T07:29:47.920Z,100.00
2022-12-31T07:33:00.182Z,100.00
2022-12-31T07:36:12.993Z,100.00
2022-12-31T07:39:27.640Z,100.00
2022-12-31T07:43:03.122Z,100.00
2022-12-31T07:46:32.547Z,100.00
2022-12-31T07:49:38.025Z,100.00
2022-12-31T07:52:41.235Z,100.00
2022-12-31T07:55:44.278Z,100.00
2022-12-31T07:59:44.621Z,100.00
2022-12-31T08:02:50.548Z,100.00
2022-12-31T08:06:11.753Z,100.00
2022-12-31T08:09:53.119Z,100.00
2022-12-31T08:13:04.529Z,100.00
2022-12-31T08:16:11.580Z,100.00
2022-12-31T08:19:25.039Z,100.00
2022-12-31T08:22:59.969Z,100.00
2022-12-31T08:26:11.891Z,100.00
2022-12-31T08:29:27.488Z,100.00
2022-12-31T08:32:44.182Z,100.00
2022-12-31T08:35:58.381Z,100.00
2022-12-31T08:39:38.716Z,100.00
2022-12-31T08:42:48.287Z,100.00
2022-12-31T08:45:54.683Z,100.00
2022-12-31T08:48:57.944Z,100.00
2022-12-31T08:52:02.219Z,100.00
2022-12-31T08:55:05.767Z,100.00
2022-12-31T08:58:27.325Z,100.00
2022-12-31T09:01:37.288Z,100.00
2022-12-31T09:08:17.246Z,100.00
2022-12-31T09:11:48.746Z,100.00
2022-12-31T09:14:58.598Z,100.00
2022-12-31T09:18:01.592Z,100.00
2022-12-31T09:21:04.634Z,100.00
2022-12-31T09:24:09.687Z,100.00
2022-12-31T09:27:25.606Z,100.00
2022-12-31T09:30:37.903Z,100.00
2022-12-31T09:33:59.206Z,100.00
2022-12-31T09:37:15.676Z,100.00
2022-12-31T09:40:50.739Z,100.00
2022-12-31T09:44:24.654Z,100.00
2022-12-31T09:47:46.607Z,100.00
2022-12-31T09:51:11.339Z,100.00
2022-12-31T09:54:27.615Z,100.00
2022-12-31T09:57:40.992Z,100.00
2022-12-31T10:00:53.019Z,100.00
2022-12-31T10:04:18.008Z,100.00
2022-12-31T10:07:29.923Z,100.00
2022-12-31T10:10:51.637Z,100.00
2022-12-31T10:14:19.093Z,100.00
2022-12-31T10:17:40.208Z,100.00
2022-12-31T10:21:07.051Z,100.00
2022-12-31T10:24:43.154Z,100.00
2022-12-31T10:28:31.130Z,100.00
2022-12-31T10:32:14.069Z,100.00
2022-12-31T10:35:29.773Z,100.00
2022-12-31T10:38:55.729Z,100.00
2022-12-31T10:42:24.015Z,100.00
2022-12-31T10:46:05.505Z,100.00
2022-12-31T10:49:45.083Z,100.00
2022-12-31T10:52:54.034Z,100.00
2022-12-31T10:56:11.955Z,100.00
2022-12-31T10:59:43.148Z,100.00
2022-12-31T11:03:04.783Z,100.00
2022-12-31T11:06:36.835Z,100.00
2022-12-31T11:10:14.897Z,100.00
2022-12-31T11:13:29.697Z,100.00
2022-12-31T11:16:41.439Z,100.00
2022-12-31T11:19:59.304Z,100.00
2022-12-31T11:23:04.922Z,100.00
2022-12-31T11:26:19.867Z,100.00
2022-12-31T11:30:15.193Z,100.00
2022-12-31T11:33:36.872Z,100.00
2022-12-31T11:36:58.138Z,100.00
2022-12-31T11:40:31.770Z,95.62
2022-12-31T11:43:39.351Z,98.54
2022-12-31T11:47:02.299Z,97.84
2022-12-31T11:50:59.829Z,92.30
2022-12-31T11:54:25.373Z,96.81
2022-12-31T11:57:34.468Z,98.10
2022-12-31T12:00:38.681Z,97.13
2022-12-31T12:03:43.945Z,96.40
2022-12-31T12:06:46.727Z,97.80
2022-12-31T12:09:50.696Z,97.10
2022-12-31T12:12:55.684Z,97.90
2022-12-31T12:16:00.898Z,100.00
2022-12-31T12:19:08.566Z,100.00
2022-12-31T12:22:13.852Z,100.00
2022-12-31T12:25:22.693Z,100.00
2022-12-31T12:28:28.776Z,100.00
2022-12-31T12:31:34.384Z,100.00
2022-12-31T12:34:43.116Z,100.00
2022-12-31T12:37:59.543Z,100.00
2022-12-31T12:41:05.755Z,97.49
2022-12-31T12:44:14.353Z,94.35
2022-12-31T12:47:18.712Z,95.11
2022-12-31T12:50:25.215Z,97.95
2022-12-31T12:53:48.048Z,99.79
2022-12-31T12:57:16.177Z,100.00
2022-12-31T13:00:21.587Z,97.93
2022-12-31T13:04:14.672Z,92.21
2022-12-31T13:07:40.622Z,91.53
2022-12-31T13:10:58.394Z,94.45
2022-12-31T13:14:10.427Z,98.30
2022-12-31T13:17:32.840Z,92.99
2022-12-31T13:20:38.819Z,95.95
2022-12-31T13:23:52.160Z,96.57
2022-12-31T13:27:15.608Z,92.42
2022-12-31T13:30:45.874Z,90.33
2022-12-31T13:33:59.806Z,91.10
2022-12-31T13:37:18.586Z,95.30
2022-12-31T13:40:26.174Z,97.52
2022-12-31T13:43:35.550Z,98.70
2022-12-31T13:46:45.678Z,99.44
2022-12-31T13:50:14.305Z,99.35
2022-12-31T13:53:23.407Z,99.92
2022-12-31T13:56:34.646Z,100.00
2022-12-31T13:59:41.461Z,100.00
2022-12-31T14:02:53.562Z,97.10
2022-12-31T14:06:04.260Z,92.86
2022-12-31T14:09:08.310Z,92.56
2022-12-31T14:12:11.099Z,94.41
2022-12-31T14:15:37.165Z,94.99
2022-12-31T14:18:55.559Z,92.47
2022-12-31T14:22:06.564Z,90.89
2022-12-31T14:25:36.408Z,89.31
2022-12-31T14:28:47.595Z,88.90
2022-12-31T14:31:52.026Z,87.78
2022-12-31T14:35:30.094Z,88.09
2022-12-31T14:38:57.889Z,87.77
2022-12-31T14:42:38.500Z,86.44
2022-12-31T14:45:54.642Z,86.04
2022-12-31T14:49:01.613Z,84.95
2022-12-31T14:52:48.114Z,86.15
2022-12-31T14:56:03.041Z,86.46
2022-12-31T14:59:29.005Z,86.03
2022-12-31T15:02:34.713Z,86.48
2022-12-31T15:05:39.083Z,87.17
2022-12-31T15:09:16.093Z,88.41
2022-12-31T15:12:45.388Z,88.23
2022-12-31T15:16:39.423Z,89.53
2022-12-31T15:20:22.574Z,89.47
2022-12-31T15:23:39.924Z,90.72
2022-12-31T15:26:57.506Z,92.41
2022-12-31T15:30:00.707Z,94.04
2022-12-31T15:33:08.721Z,95.25
2022-12-31T15:36:40.973Z,95.15
2022-12-31T15:39:44.689Z,95.01
2022-12-31T15:42:52.765Z,95.68
2022-12-31T15:45:56.295Z,95.66
2022-12-31T15:49:10.244Z,95.63
2022-12-31T15:52:40.947Z,95.50
2022-12-31T15:55:47.043Z,94.03
2022-12-31T15:58:52.006Z,93.87
2022-12-31T16:01:58.297Z,93.43
2022-12-31T16:05:01.582Z,92.86
2022-12-31T16:08:04.751Z,92.83
2022-12-31T16:11:11.423Z,92.96
2022-12-31T16:14:29.697Z,93.26
2022-12-31T16:17:37.146Z,92.58
2022-12-31T16:20:44.965Z,90.89
2022-12-31T16:23:53.019Z,91.36
2022-12-31T16:26:59.217Z,90.41
2022-12-31T16:30:07.340Z,90.52
2022-12-31T16:33:15.175Z,89.92
2022-12-31T16:36:24.033Z,89.23
2022-12-31T16:39:32.232Z,89.40
2022-12-31T16:42:44.142Z,88.63
2022-12-31T16:45:47.381Z,88.19
2022-12-31T16:48:56.225Z,87.90
2022-12-31T16:52:25.417Z,87.58
2022-12-31T16:55:30.222Z,87.68
2022-12-31T16:58:35.410Z,87.84
2022-12-31T17:01:39.062Z,88.07
2022-12-31T17:04:55.397Z,87.70
2022-12-31T17:08:19.066Z,87.65
2022-12-31T17:11:31.055Z,87.33
2022-12-31T17:14:49.122Z,87.77
2022-12-31T17:17:58.835Z,87.94
2022-12-31T17:21:11.222Z,87.06
2022-12-31T17:24:14.236Z,87.89
2022-12-31T17:27:17.164Z,88.48
2022-12-31T17:30:40.545Z,88.79
2022-12-31T17:33:43.496Z,89.02
2022-12-31T17:36:59.769Z,88.53
2022-12-31T17:40:49.958Z,88.80
2022-12-31T17:43:33.068Z,89.57
2022-12-31T17:46:38.955Z,89.18
2022-12-31T17:49:45.904Z,89.30
2022-12-31T17:52:48.972Z,89.36
2022-12-31T17:55:56.313Z,88.83
2022-12-31T17:59:00.696Z,88.98
2022-12-31T18:02:04.333Z,89.06
2022-12-31T18:05:18.883Z,89.08
2022-12-31T18:08:21.664Z,88.67
2022-12-31T18:11:25.113Z,88.41
2022-12-31T18:14:27.798Z,87.85
2022-12-31T18:17:30.609Z,88.28
2022-12-31T18:20:33.921Z,87.22
2022-12-31T18:23:47.786Z,87.99
2022-12-31T18:26:54.066Z,87.76
2022-12-31T18:30:04.091Z,88.07
2022-12-31T18:33:07.771Z,88.67
2022-12-31T18:36:13.214Z,88.78
2022-12-31T18:39:15.967Z,87.98
2022-12-31T18:42:19.552Z,88.07
2022-12-31T18:45:22.230Z,86.94
2022-12-31T18:48:25.280Z,86.58
2022-12-31T18:51:31.994Z,86.30
2022-12-31T18:54:35.254Z,85.46
2022-12-31T18:57:41.118Z,85.18
2022-12-31T19:00:44.815Z,85.63
2022-12-31T19:03:48.014Z,85.57
2022-12-31T19:06:51.096Z,85.89
2022-12-31T19:09:58.515Z,85.53
2022-12-31T19:13:04.608Z,85.24
2022-12-31T19:16:08.029Z,85.00
2022-12-31T19:19:11.177Z,84.83
2022-12-31T19:22:15.720Z,84.18
2022-12-31T19:25:24.556Z,83.72
2022-12-31T19:28:28.110Z,82.94
2022-12-31T19:31:31.303Z,82.52
2022-12-31T19:34:34.127Z,81.89
2022-12-31T19:37:36.931Z,82.73
2022-12-31T19:40:40.852Z,81.93
2022-12-31T19:43:44.210Z,80.87
2022-12-31T19:46:49.447Z,81.87
2022-12-31T19:49:55.275Z,81.18
2022-12-31T19:52:59.445Z,80.92
2022-12-31T19:56:05.875Z,81.17
2022-12-31T19:59:10.132Z,80.88
2022-12-31T20:02:13.503Z,80.00
2022-12-31T20:05:17.198Z,79.95
2022-12-31T20:08:23.076Z,79.28
2022-12-31T20:11:26.100Z,79.15
2022-12-31T20:14:29.001Z,77.97
2022-12-31T20:17:35.815Z,79.20
2022-12-31T20:20:38.688Z,79.04
2022-12-31T20:23:41.804Z,78.94
2022-12-31T20:26:44.672Z,77.77
2022-12-31T20:29:47.407Z,77.76
2022-12-31T20:32:52.857Z,78.22
2022-12-31T20:35:55.632Z,77.25
2022-12-31T20:38:58.969Z,77.65
2022-12-31T20:42:01.767Z,77.04
2022-12-31T20:45:05.016Z,76.72
2022-12-31T20:48:07.752Z,76.72
2022-12-31T20:51:11.436Z,76.88
2022-12-31T20:54:14.278Z,76.74
2022-12-31T20:57:17.090Z,76.67
2022-12-31T21:00:20.949Z,76.91
2022-12-31T21:04:03.174Z,77.15
2022-12-31T21:06:49.591Z,76.87
2022-12-31T21:09:52.584Z,76.47
2022-12-31T21:12:55.602Z,76.96
2022-12-31T21:16:01.475Z,76.76
2022-12-31T21:19:04.444Z,76.44
2022-12-31T21:22:07.332Z,76.81
2022-12-31T21:25:11.030Z,77.41
2022-12-31T21:28:14.116Z,77.26
2022-12-31T21:31:16.978Z,78.24
2022-12-31T21:34:19.814Z,78.25
2022-12-31T21:37:22.661Z,77.82
2022-12-31T21:40:25.600Z,76.71
2022-12-31T21:43:28.683Z,76.90
2022-12-31T21:46:31.820Z,77.74
2022-12-31T21:49:34.724Z,77.93
2022-12-31T21:52:38.235Z,78.64
2022-12-31T21:56:00.070Z,79.02
2022-12-31T21:59:21.395Z,78.70
2022-12-31T22:02:42.717Z,79.80
2022-12-31T22:06:11.198Z,81.02
2022-12-31T22:09:14.753Z,81.23
2022-12-31T22:12:17.576Z,80.71
2022-12-31T22:15:20.822Z,81.50
2022-12-31T22:18:24.013Z,82.05
2022-12-31T22:21:27.849Z,81.32
2022-12-31T22:24:33.849Z,82.27
2022-12-31T22:27:36.884Z,82.54
2022-12-31T22:30:39.761Z,82.45
2022-12-31T22:33:46.309Z,82.25
2022-12-31T22:36:49.134Z,81.61
2022-12-31T22:39:52.652Z,81.67
2022-12-31T22:42:55.770Z,81.48
2022-12-31T22:45:58.667Z,81.93
2022-12-31T22:49:03.217Z,82.14
2022-12-31T22:52:08.816Z,81.19
2022-12-31T22:55:14.629Z,80.48
2022-12-31T22:58:19.979Z,80.53
2022-12-31T23:01:25.034Z,80.54
2022-12-31T23:04:27.868Z,80.61
2022-12-31T23:07:33.676Z,80.84
2022-12-31T23:10:58.047Z,81.39
2022-12-31T23:14:20.044Z,82.43
2022-12-31T23:17:43.851Z,83.51
2022-12-31T23:21:05.108Z,84.33
2022-12-31T23:24:13.637Z,84.56
2022-12-31T23:27:24.853Z,84.16
2022-12-31T23:30:27.784Z,84.32
2022-12-31T23:33:30.694Z,84.52
2022-12-31T23:36:33.481Z,84.13
2022-12-31T23:39:36.348Z,82.96
2022-12-31T23:42:39.273Z,81.18
2022-12-31T23:45:42.141Z,80.83
2022-12-31T23:48:45.003Z,80.98
2022-12-31T23:51:48.634Z,80.20
2022-12-31T23:54:51.534Z,80.20
2022-12-31T23:57:57.650Z,79.61
